sensor_id;sensor_type;location;lat;lon;timestamp;P1;durP1;ratioP1;P2;durP2;ratioP2
70337;SDS011;57757;53.198;19.646;2022-12-22T00:00:26;61.30;;;19.70;;
70337;SDS011;57757;53.198;19.646;2022-12-22T00:03:23;58.40;;;19.30;;
70337;SDS011;57757;53.198;19.646;2022-12-22T00:06:08;59.10;;;19.80;;
70337;SDS011;57757;53.198;19.646;2022-12-22T00:08:52;56.10;;;18.90;;
70337;SDS011;57757;53.198;19.646;2022-12-22T00:11:35;60.20;;;20.70;;
70337;SDS011;57757;53.198;19.646;2022-12-22T00:14:18;60.20;;;20.50;;
70337;SDS011;57757;53.198;19.646;2022-12-22T00:17:02;62.30;;;21.60;;
70337;SDS011;57757;53.198;19.646;2022-12-22T00:19:45;67.60;;;23.80;;
70337;SDS011;57757;53.198;19.646;2022-12-22T00:22:29;63.50;;;22.30;;
70337;SDS011;57757;53.198;19.646;2022-12-22T00:25:13;69.30;;;22.20;;
70337;SDS011;57757;53.198;19.646;2022-12-22T00:27:58;63.90;;;20.10;;
70337;SDS011;57757;53.198;19.646;2022-12-22T00:30:42;66.40;;;21.50;;
70337;SDS011;57757;53.198;19.646;2022-12-22T00:33:27;68.70;;;22.10;;
70337;SDS011;57757;53.198;19.646;2022-12-22T00:36:11;64.30;;;19.70;;
70337;SDS011;57757;53.198;19.646;2022-12-22T00:38:55;50.50;;;18.30;;
70337;SDS011;57757;53.198;19.646;2022-12-22T00:41:39;57.90;;;19.20;;
70337;SDS011;57757;53.198;19.646;2022-12-22T00:44:23;61.00;;;19.90;;
70337;SDS011;57757;53.198;19.646;2022-12-22T00:47:08;52.30;;;18.30;;
70337;SDS011;57757;53.198;19.646;2022-12-22T00:49:57;58.10;;;18.80;;
70337;SDS011;57757;53.198;19.646;2022-12-22T00:52:41;68.10;;;21.40;;
70337;SDS011;57757;53.198;19.646;2022-12-22T00:55:26;62.30;;;19.20;;
70337;SDS011;57757;53.198;19.646;2022-12-22T00:58:14;56.50;;;19.20;;
70337;SDS011;57757;53.198;19.646;2022-12-22T01:00:59;64.60;;;21.20;;
70337;SDS011;57757;53.198;19.646;2022-12-22T01:03:42;61.40;;;19.70;;
70337;SDS011;57757;53.198;19.646;2022-12-22T01:06:27;62.70;;;18.90;;
70337;SDS011;57757;53.198;19.646;2022-12-22T01:09:13;64.40;;;20.20;;
70337;SDS011;57757;53.198;19.646;2022-12-22T01:11:57;60.40;;;19.80;;
70337;SDS011;57757;53.198;19.646;2022-12-22T01:14:41;70.00;;;24.30;;
70337;SDS011;57757;53.198;19.646;2022-12-22T01:17:23;53.60;;;17.60;;
70337;SDS011;57757;53.198;19.646;2022-12-22T01:20:07;63.40;;;20.30;;
70337;SDS011;57757;53.198;19.646;2022-12-22T01:22:51;63.00;;;21.20;;
70337;SDS011;57757;53.198;19.646;2022-12-22T01:25:35;59.90;;;19.20;;
70337;SDS011;57757;53.198;19.646;2022-12-22T01:28:17;62.30;;;20.10;;
70337;SDS011;57757;53.198;19.646;2022-12-22T01:34:08;55.10;;;17.90;;
70337;SDS011;57757;53.198;19.646;2022-12-22T01:36:52;63.40;;;21.20;;
70337;SDS011;57757;53.198;19.646;2022-12-22T01:39:35;58.10;;;20.10;;
70337;SDS011;57757;53.198;19.646;2022-12-22T01:42:19;60.30;;;20.40;;
70337;SDS011;57757;53.198;19.646;2022-12-22T01:45:11;64.30;;;20.50;;
70337;SDS011;57757;53.198;19.646;2022-12-22T01:48:02;68.00;;;23.20;;
70337;SDS011;57757;53.198;19.646;2022-12-22T01:50:46;55.80;;;20.20;;
70337;SDS011;57757;53.198;19.646;2022-12-22T01:53:30;64.60;;;21.20;;
70337;SDS011;57757;53.198;19.646;2022-12-22T01:56:14;60.80;;;19.70;;
70337;SDS011;57757;53.198;19.646;2022-12-22T01:58:59;59.80;;;19.50;;
70337;SDS011;57757;53.198;19.646;2022-12-22T02:01:46;64.60;;;21.30;;
70337;SDS011;57757;53.198;19.646;2022-12-22T02:04:35;60.00;;;20.90;;
70337;SDS011;57757;53.198;19.646;2022-12-22T02:07:46;62.00;;;21.90;;
70337;SDS011;57757;53.198;19.646;2022-12-22T02:10:50;59.70;;;20.20;;
70337;SDS011;57757;53.198;19.646;2022-12-22T02:13:41;69.50;;;22.00;;
70337;SDS011;57757;53.198;19.646;2022-12-22T02:25:35;64.30;;;22.20;;
70337;SDS011;57757;53.198;19.646;2022-12-22T02:28:25;61.10;;;21.50;;
70337;SDS011;57757;53.198;19.646;2022-12-22T02:31:09;64.30;;;20.60;;
70337;SDS011;57757;53.198;19.646;2022-12-22T02:33:53;58.00;;;20.30;;
70337;SDS011;57757;53.198;19.646;2022-12-22T02:45:52;63.30;;;19.60;;
70337;SDS011;57757;53.198;19.646;2022-12-22T02:48:49;65.40;;;22.90;;
70337;SDS011;57757;53.198;19.646;2022-12-22T02:51:47;71.00;;;22.30;;
70337;SDS011;57757;53.198;19.646;2022-12-22T02:54:35;60.40;;;22.50;;
70337;SDS011;57757;53.198;19.646;2022-12-22T02:57:19;62.20;;;25.30;;
70337;SDS011;57757;53.198;19.646;2022-12-22T03:00:04;63.40;;;23.70;;
70337;SDS011;57757;53.198;19.646;2022-12-22T03:02:49;63.50;;;21.80;;
70337;SDS011;57757;53.198;19.646;2022-12-22T03:05:33;63.40;;;21.20;;
70337;SDS011;57757;53.198;19.646;2022-12-22T03:08:17;61.20;;;20.30;;
70337;SDS011;57757;53.198;19.646;2022-12-22T03:11:00;58.90;;;20.40;;
70337;SDS011;57757;53.198;19.646;2022-12-22T03:13:44;51.80;;;18.50;;
70337;SDS011;57757;53.198;19.646;2022-12-22T03:16:27;56.20;;;19.30;;
70337;SDS011;57757;53.198;19.646;2022-12-22T03:19:11;63.60;;;22.40;;
70337;SDS011;57757;53.198;19.646;2022-12-22T03:21:55;62.70;;;22.20;;
70337;SDS011;57757;53.198;19.646;2022-12-22T03:24:38;73.70;;;23.50;;
70337;SDS011;57757;53.198;19.646;2022-12-22T03:27:22;56.70;;;20.70;;
70337;SDS011;57757;53.198;19.646;2022-12-22T03:29:50;57.80;;;21.90;;
70337;SDS011;57757;53.198;19.646;2022-12-22T03:32:17;60.40;;;20.90;;
70337;SDS011;57757;53.198;19.646;2022-12-22T03:34:45;68.50;;;24.90;;
70337;SDS011;57757;53.198;19.646;2022-12-22T03:37:13;68.60;;;25.10;;
70337;SDS011;57757;53.198;19.646;2022-12-22T03:39:40;67.70;;;25.10;;
70337;SDS011;57757;53.198;19.646;2022-12-22T03:42:11;68.50;;;24.40;;
70337;SDS011;57757;53.198;19.646;2022-12-22T03:44:55;62.10;;;21.40;;
70337;SDS011;57757;53.198;19.646;2022-12-22T03:47:37;62.00;;;22.30;;
70337;SDS011;57757;53.198;19.646;2022-12-22T03:50:05;68.70;;;23.60;;
70337;SDS011;57757;53.198;19.646;2022-12-22T03:52:33;69.10;;;23.50;;
70337;SDS011;57757;53.198;19.646;2022-12-22T03:55:01;62.70;;;23.50;;
70337;SDS011;57757;53.198;19.646;2022-12-22T03:57:29;62.90;;;22.90;;
70337;SDS011;57757;53.198;19.646;2022-12-22T03:59:56;65.20;;;21.30;;
70337;SDS011;57757;53.198;19.646;2022-12-22T04:02:24;65.40;;;25.40;;
70337;SDS011;57757;53.198;19.646;2022-12-22T04:04:52;70.50;;;24.60;;
70337;SDS011;57757;53.198;19.646;2022-12-22T04:07:19;73.10;;;25.30;;
70337;SDS011;57757;53.198;19.646;2022-12-22T04:09:47;73.20;;;27.20;;
70337;SDS011;57757;53.198;19.646;2022-12-22T04:12:31;77.40;;;25.70;;
70337;SDS011;57757;53.198;19.646;2022-12-22T04:15:13;66.60;;;24.80;;
70337;SDS011;57757;53.198;19.646;2022-12-22T04:17:41;60.70;;;23.00;;
70337;SDS011;57757;53.198;19.646;2022-12-22T04:20:09;75.30;;;23.70;;
70337;SDS011;57757;53.198;19.646;2022-12-22T04:22:37;64.20;;;22.90;;
70337;SDS011;57757;53.198;19.646;2022-12-22T04:25:05;72.80;;;24.20;;
70337;SDS011;57757;53.198;19.646;2022-12-22T04:27:33;64.70;;;23.70;;
70337;SDS011;57757;53.198;19.646;2022-12-22T04:30:01;71.20;;;25.50;;
70337;SDS011;57757;53.198;19.646;2022-12-22T04:32:30;75.70;;;27.20;;
70337;SDS011;57757;53.198;19.646;2022-12-22T04:34:57;72.50;;;24.60;;
70337;SDS011;57757;53.198;19.646;2022-12-22T04:37:25;69.70;;;24.10;;
70337;SDS011;57757;53.198;19.646;2022-12-22T04:39:53;65.60;;;24.20;;
70337;SDS011;57757;53.198;19.646;2022-12-22T04:42:21;75.30;;;25.40;;
70337;SDS011;57757;53.198;19.646;2022-12-22T04:44:49;85.00;;;29.60;;
70337;SDS011;57757;53.198;19.646;2022-12-22T04:47:16;71.40;;;26.30;;
70337;SDS011;57757;53.198;19.646;2022-12-22T04:49:44;71.90;;;25.20;;
70337;SDS011;57757;53.198;19.646;2022-12-22T04:52:12;68.20;;;25.40;;
70337;SDS011;57757;53.198;19.646;2022-12-22T04:54:39;72.40;;;25.70;;
70337;SDS011;57757;53.198;19.646;2022-12-22T04:57:07;73.70;;;25.90;;
70337;SDS011;57757;53.198;19.646;2022-12-22T04:59:35;68.70;;;23.80;;
70337;SDS011;57757;53.198;19.646;2022-12-22T05:02:03;65.20;;;25.00;;
70337;SDS011;57757;53.198;19.646;2022-12-22T05:04:31;69.90;;;25.00;;
70337;SDS011;57757;53.198;19.646;2022-12-22T05:06:58;78.80;;;26.10;;
70337;SDS011;57757;53.198;19.646;2022-12-22T05:09:26;75.20;;;29.60;;
70337;SDS011;57757;53.198;19.646;2022-12-22T05:11:54;72.70;;;27.20;;
70337;SDS011;57757;53.198;19.646;2022-12-22T05:14:21;80.00;;;31.80;;
70337;SDS011;57757;53.198;19.646;2022-12-22T05:16:49;75.00;;;27.20;;
70337;SDS011;57757;53.198;19.646;2022-12-22T05:19:17;73.60;;;25.20;;
70337;SDS011;57757;53.198;19.646;2022-12-22T05:21:45;74.00;;;26.40;;
70337;SDS011;57757;53.198;19.646;2022-12-22T05:24:13;65.10;;;24.90;;
70337;SDS011;57757;53.198;19.646;2022-12-22T05:26:41;66.30;;;25.40;;
70337;SDS011;57757;53.198;19.646;2022-12-22T05:29:08;66.60;;;24.80;;
70337;SDS011;57757;53.198;19.646;2022-12-22T05:31:36;72.40;;;26.30;;
70337;SDS011;57757;53.198;19.646;2022-12-22T05:34:13;78.70;;;27.40;;
70337;SDS011;57757;53.198;19.646;2022-12-22T05:36:40;75.70;;;26.00;;
70337;SDS011;57757;53.198;19.646;2022-12-22T05:39:08;72.40;;;25.70;;
70337;SDS011;57757;53.198;19.646;2022-12-22T05:41:36;80.00;;;30.90;;
70337;SDS011;57757;53.198;19.646;2022-12-22T05:44:04;100.20;;;34.20;;
70337;SDS011;57757;53.198;19.646;2022-12-22T05:46:31;88.20;;;31.60;;
70337;SDS011;57757;53.198;19.646;2022-12-22T05:48:59;74.00;;;27.70;;
70337;SDS011;57757;53.198;19.646;2022-12-22T05:51:27;85.80;;;28.20;;
70337;SDS011;57757;53.198;19.646;2022-12-22T05:53:54;76.40;;;27.90;;
70337;SDS011;57757;53.198;19.646;2022-12-22T05:56:22;82.40;;;31.10;;
70337;SDS011;57757;53.198;19.646;2022-12-22T05:58:50;86.10;;;31.60;;
70337;SDS011;57757;53.198;19.646;2022-12-22T06:01:17;87.80;;;32.40;;
70337;SDS011;57757;53.198;19.646;2022-12-22T06:03:45;76.10;;;29.40;;
70337;SDS011;57757;53.198;19.646;2022-12-22T06:06:13;91.30;;;29.00;;
70337;SDS011;57757;53.198;19.646;2022-12-22T06:08:40;79.40;;;28.40;;
70337;SDS011;57757;53.198;19.646;2022-12-22T06:11:08;78.60;;;27.80;;
70337;SDS011;57757;53.198;19.646;2022-12-22T06:13:36;77.70;;;28.10;;
70337;SDS011;57757;53.198;19.646;2022-12-22T06:16:03;86.30;;;29.10;;
70337;SDS011;57757;53.198;19.646;2022-12-22T06:18:31;89.20;;;31.40;;
70337;SDS011;57757;53.198;19.646;2022-12-22T06:20:59;90.90;;;33.60;;
70337;SDS011;57757;53.198;19.646;2022-12-22T06:23:27;100.20;;;36.40;;
70337;SDS011;57757;53.198;19.646;2022-12-22T06:26:01;88.00;;;33.80;;
70337;SDS011;57757;53.198;19.646;2022-12-22T06:28:29;80.20;;;31.40;;
70337;SDS011;57757;53.198;19.646;2022-12-22T06:31:00;85.60;;;33.30;;
70337;SDS011;57757;53.198;19.646;2022-12-22T06:33:28;68.90;;;28.40;;
70337;SDS011;57757;53.198;19.646;2022-12-22T06:35:56;83.20;;;31.10;;
70337;SDS011;57757;53.198;19.646;2022-12-22T06:38:26;87.20;;;31.40;;
70337;SDS011;57757;53.198;19.646;2022-12-22T06:40:55;151.20;;;49.60;;
70337;SDS011;57757;53.198;19.646;2022-12-22T06:43:22;167.20;;;51.80;;
70337;SDS011;57757;53.198;19.646;2022-12-22T06:45:51;127.00;;;37.40;;
70337;SDS011;57757;53.198;19.646;2022-12-22T06:48:19;132.40;;;37.00;;
70337;SDS011;57757;53.198;19.646;2022-12-22T06:50:47;100.50;;;37.70;;
70337;SDS011;57757;53.198;19.646;2022-12-22T06:53:15;85.80;;;34.20;;
70337;SDS011;57757;53.198;19.646;2022-12-22T06:55:43;100.80;;;41.20;;
70337;SDS011;57757;53.198;19.646;2022-12-22T06:58:14;81.30;;;31.90;;
70337;SDS011;57757;53.198;19.646;2022-12-22T07:00:42;77.80;;;27.60;;
70337;SDS011;57757;53.198;19.646;2022-12-22T07:03:11;66.00;;;24.60;;
70337;SDS011;57757;53.198;19.646;2022-12-22T07:05:39;77.70;;;28.80;;
70337;SDS011;57757;53.198;19.646;2022-12-22T07:08:08;80.50;;;27.90;;
70337;SDS011;57757;53.198;19.646;2022-12-22T07:10:36;75.40;;;28.20;;
70337;SDS011;57757;53.198;19.646;2022-12-22T07:13:18;65.70;;;27.50;;
70337;SDS011;57757;53.198;19.646;2022-12-22T07:15:47;79.90;;;28.70;;
70337;SDS011;57757;53.198;19.646;2022-12-22T07:18:26;74.90;;;27.80;;
70337;SDS011;57757;53.198;19.646;2022-12-22T07:20:55;75.20;;;27.00;;
70337;SDS011;57757;53.198;19.646;2022-12-22T07:23:24;80.70;;;31.10;;
70337;SDS011;57757;53.198;19.646;2022-12-22T07:25:52;71.50;;;30.90;;
70337;SDS011;57757;53.198;19.646;2022-12-22T07:28:24;86.20;;;32.00;;
70337;SDS011;57757;53.198;19.646;2022-12-22T07:30:53;89.40;;;36.40;;
70337;SDS011;57757;53.198;19.646;2022-12-22T07:33:21;84.90;;;30.80;;
70337;SDS011;57757;53.198;19.646;2022-12-22T07:35:59;69.30;;;27.30;;
70337;SDS011;57757;53.198;19.646;2022-12-22T07:38:27;82.80;;;33.50;;
70337;SDS011;57757;53.198;19.646;2022-12-22T07:40:57;86.30;;;35.20;;
70337;SDS011;57757;53.198;19.646;2022-12-22T07:43:31;79.30;;;32.90;;
70337;SDS011;57757;53.198;19.646;2022-12-22T07:45:59;77.10;;;31.00;;
70337;SDS011;57757;53.198;19.646;2022-12-22T07:48:27;72.70;;;29.60;;
70337;SDS011;57757;53.198;19.646;2022-12-22T07:51:10;81.40;;;32.50;;
70337;SDS011;57757;53.198;19.646;2022-12-22T07:53:38;86.40;;;32.90;;
70337;SDS011;57757;53.198;19.646;2022-12-22T07:56:06;111.50;;;45.90;;
70337;SDS011;57757;53.198;19.646;2022-12-22T07:58:34;136.80;;;53.50;;
70337;SDS011;57757;53.198;19.646;2022-12-22T08:01:02;81.30;;;33.50;;
70337;SDS011;57757;53.198;19.646;2022-12-22T08:03:29;78.90;;;29.50;;
70337;SDS011;57757;53.198;19.646;2022-12-22T08:05:57;59.50;;;24.10;;
70337;SDS011;57757;53.198;19.646;2022-12-22T08:08:25;68.20;;;25.50;;
70337;SDS011;57757;53.198;19.646;2022-12-22T08:10:53;77.00;;;28.70;;
70337;SDS011;57757;53.198;19.646;2022-12-22T08:13:20;76.60;;;28.00;;
70337;SDS011;57757;53.198;19.646;2022-12-22T08:15:48;76.60;;;28.50;;
70337;SDS011;57757;53.198;19.646;2022-12-22T08:18:16;65.10;;;27.70;;
70337;SDS011;57757;53.198;19.646;2022-12-22T08:20:48;66.20;;;25.80;;
70337;SDS011;57757;53.198;19.646;2022-12-22T08:23:17;67.30;;;26.20;;
70337;SDS011;57757;53.198;19.646;2022-12-22T08:25:47;63.50;;;26.40;;
70337;SDS011;57757;53.198;19.646;2022-12-22T08:28:22;68.40;;;29.50;;
70337;SDS011;57757;53.198;19.646;2022-12-22T08:30:50;64.60;;;27.40;;
70337;SDS011;57757;53.198;19.646;2022-12-22T08:33:18;63.50;;;26.40;;
70337;SDS011;57757;53.198;19.646;2022-12-22T08:35:46;60.20;;;25.10;;
70337;SDS011;57757;53.198;19.646;2022-12-22T08:38:15;57.50;;;24.80;;
70337;SDS011;57757;53.198;19.646;2022-12-22T08:40:43;53.50;;;22.00;;
70337;SDS011;57757;53.198;19.646;2022-12-22T08:43:11;56.50;;;23.60;;
70337;SDS011;57757;53.198;19.646;2022-12-22T08:45:40;60.00;;;23.80;;
70337;SDS011;57757;53.198;19.646;2022-12-22T08:48:09;52.70;;;22.60;;
70337;SDS011;57757;53.198;19.646;2022-12-22T08:50:37;53.20;;;22.70;;
70337;SDS011;57757;53.198;19.646;2022-12-22T08:53:06;57.20;;;23.20;;
70337;SDS011;57757;53.198;19.646;2022-12-22T08:55:54;57.10;;;23.60;;
70337;SDS011;57757;53.198;19.646;2022-12-22T08:58:22;58.60;;;23.50;;
70337;SDS011;57757;53.198;19.646;2022-12-22T09:00:50;50.70;;;22.20;;
70337;SDS011;57757;53.198;19.646;2022-12-22T09:03:18;57.50;;;21.50;;
70337;SDS011;57757;53.198;19.646;2022-12-22T09:05:46;56.00;;;23.50;;
70337;SDS011;57757;53.198;19.646;2022-12-22T09:08:14;49.70;;;22.70;;
70337;SDS011;57757;53.198;19.646;2022-12-22T09:10:42;53.00;;;22.20;;
70337;SDS011;57757;53.198;19.646;2022-12-22T09:13:10;57.20;;;24.10;;
70337;SDS011;57757;53.198;19.646;2022-12-22T09:15:38;53.20;;;22.30;;
70337;SDS011;57757;53.198;19.646;2022-12-22T09:18:06;53.40;;;23.70;;
70337;SDS011;57757;53.198;19.646;2022-12-22T09:20:35;55.20;;;23.40;;
70337;SDS011;57757;53.198;19.646;2022-12-22T09:23:03;65.50;;;27.30;;
70337;SDS011;57757;53.198;19.646;2022-12-22T09:25:32;48.50;;;20.90;;
70337;SDS011;57757;53.198;19.646;2022-12-22T09:28:01;54.00;;;22.10;;
70337;SDS011;57757;53.198;19.646;2022-12-22T09:30:29;51.10;;;21.70;;
70337;SDS011;57757;53.198;19.646;2022-12-22T09:32:56;50.60;;;22.00;;
70337;SDS011;57757;53.198;19.646;2022-12-22T09:35:24;52.70;;;22.40;;
70337;SDS011;57757;53.198;19.646;2022-12-22T09:37:52;50.90;;;21.80;;
70337;SDS011;57757;53.198;19.646;2022-12-22T09:40:20;47.20;;;21.10;;
70337;SDS011;57757;53.198;19.646;2022-12-22T09:42:48;50.00;;;21.50;;
70337;SDS011;57757;53.198;19.646;2022-12-22T09:45:20;48.50;;;20.80;;
70337;SDS011;57757;53.198;19.646;2022-12-22T09:47:47;50.10;;;19.90;;
70337;SDS011;57757;53.198;19.646;2022-12-22T09:50:21;47.80;;;20.10;;
70337;SDS011;57757;53.198;19.646;2022-12-22T09:52:54;44.80;;;19.40;;
70337;SDS011;57757;53.198;19.646;2022-12-22T09:55:46;54.70;;;22.30;;
70337;SDS011;57757;53.198;19.646;2022-12-22T10:03:54;50.50;;;21.30;;
70337;SDS011;57757;53.198;19.646;2022-12-22T10:06:42;54.70;;;23.60;;
70337;SDS011;57757;53.198;19.646;2022-12-22T10:09:21;46.40;;;20.40;;
70337;SDS011;57757;53.198;19.646;2022-12-22T10:12:15;53.70;;;25.00;;
70337;SDS011;57757;53.198;19.646;2022-12-22T10:14:50;49.50;;;22.30;;
70337;SDS011;57757;53.198;19.646;2022-12-22T10:20:26;91.50;;;34.60;;
70337;SDS011;57757;53.198;19.646;2022-12-22T10:22:57;83.30;;;30.20;;
70337;SDS011;57757;53.198;19.646;2022-12-22T10:28:37;90.10;;;30.70;;
70337;SDS011;57757;53.198;19.646;2022-12-22T10:31:17;54.00;;;22.80;;
70337;SDS011;57757;53.198;19.646;2022-12-22T10:33:52;67.40;;;24.00;;
70337;SDS011;57757;53.198;19.646;2022-12-22T10:36:25;75.80;;;25.00;;
70337;SDS011;57757;53.198;19.646;2022-12-22T10:41:44;130.20;;;40.90;;
70337;SDS011;57757;53.198;19.646;2022-12-22T10:49:28;110.60;;;33.10;;
70337;SDS011;57757;53.198;19.646;2022-12-22T10:57:42;56.20;;;22.30;;
70337;SDS011;57757;53.198;19.646;2022-12-22T11:02:59;66.00;;;23.70;;
70337;SDS011;57757;53.198;19.646;2022-12-22T11:05:30;57.40;;;21.70;;
70337;SDS011;57757;53.198;19.646;2022-12-22T11:08:00;48.10;;;19.50;;
70337;SDS011;57757;53.198;19.646;2022-12-22T11:22:20;29.90;;;14.00;;
70337;SDS011;57757;53.198;19.646;2022-12-22T11:30:56;41.90;;;18.20;;
70337;SDS011;57757;53.198;19.646;2022-12-22T11:39:15;39.80;;;17.60;;
70337;SDS011;57757;53.198;19.646;2022-12-22T11:47:18;36.60;;;18.00;;
70337;SDS011;57757;53.198;19.646;2022-12-22T11:50:05;33.80;;;15.50;;
70337;SDS011;57757;53.198;19.646;2022-12-22T11:53:03;34.20;;;17.00;;
70337;SDS011;57757;53.198;19.646;2022-12-22T11:55:34;42.60;;;20.70;;
70337;SDS011;57757;53.198;19.646;2022-12-22T12:12:28;31.80;;;14.70;;
70337;SDS011;57757;53.198;19.646;2022-12-22T12:17:58;27.60;;;12.90;;
70337;SDS011;57757;53.198;19.646;2022-12-22T12:20:39;28.30;;;13.20;;
70337;SDS011;57757;53.198;19.646;2022-12-22T12:26:03;33.10;;;15.50;;
70337;SDS011;57757;53.198;19.646;2022-12-22T12:31:31;28.90;;;14.50;;
70337;SDS011;57757;53.198;19.646;2022-12-22T12:34:04;27.70;;;13.50;;
70337;SDS011;57757;53.198;19.646;2022-12-22T12:42:52;28.00;;;14.60;;
70337;SDS011;57757;53.198;19.646;2022-12-22T12:50:56;41.90;;;17.60;;
70337;SDS011;57757;53.198;19.646;2022-12-22T12:53:28;42.40;;;23.40;;
70337;SDS011;57757;53.198;19.646;2022-12-22T12:55:59;28.00;;;14.80;;
70337;SDS011;57757;53.198;19.646;2022-12-22T13:01:11;30.10;;;14.40;;
70337;SDS011;57757;53.198;19.646;2022-12-22T13:04:00;27.00;;;13.90;;
70337;SDS011;57757;53.198;19.646;2022-12-22T13:09:25;31.90;;;14.50;;
70337;SDS011;57757;53.198;19.646;2022-12-22T13:15:01;31.60;;;17.40;;
70337;SDS011;57757;53.198;19.646;2022-12-22T13:17:32;34.70;;;16.30;;
70337;SDS011;57757;53.198;19.646;2022-12-22T13:20:16;27.10;;;13.80;;
70337;SDS011;57757;53.198;19.646;2022-12-22T13:22:52;35.10;;;16.30;;
70337;SDS011;57757;53.198;19.646;2022-12-22T13:25:23;30.00;;;15.40;;
70337;SDS011;57757;53.198;19.646;2022-12-22T13:27:57;29.30;;;14.00;;
70337;SDS011;57757;53.198;19.646;2022-12-22T13:30:25;30.60;;;14.20;;
70337;SDS011;57757;53.198;19.646;2022-12-22T13:32:56;35.00;;;16.00;;
70337;SDS011;57757;53.198;19.646;2022-12-22T13:35:32;30.70;;;14.30;;
70337;SDS011;57757;53.198;19.646;2022-12-22T13:41:03;35.20;;;15.40;;
70337;SDS011;57757;53.198;19.646;2022-12-22T13:43:55;36.10;;;15.60;;
70337;SDS011;57757;53.198;19.646;2022-12-22T13:46:29;37.70;;;16.30;;
70337;SDS011;57757;53.198;19.646;2022-12-22T13:48:59;46.40;;;18.30;;
70337;SDS011;57757;53.198;19.646;2022-12-22T13:51:32;37.00;;;15.80;;
70337;SDS011;57757;53.198;19.646;2022-12-22T13:56:55;38.00;;;16.70;;
70337;SDS011;57757;53.198;19.646;2022-12-22T14:02:14;32.60;;;16.20;;
70337;SDS011;57757;53.198;19.646;2022-12-22T14:05:06;37.50;;;18.40;;
70337;SDS011;57757;53.198;19.646;2022-12-22T14:07:36;44.90;;;18.10;;
70337;SDS011;57757;53.198;19.646;2022-12-22T14:10:04;37.10;;;16.20;;
70337;SDS011;57757;53.198;19.646;2022-12-22T14:12:39;39.80;;;17.30;;
70337;SDS011;57757;53.198;19.646;2022-12-22T14:15:14;38.80;;;17.40;;
70337;SDS011;57757;53.198;19.646;2022-12-22T14:17:45;33.50;;;15.20;;
70337;SDS011;57757;53.198;19.646;2022-12-22T14:20:38;41.50;;;17.20;;
70337;SDS011;57757;53.198;19.646;2022-12-22T14:23:07;44.80;;;18.00;;
70337;SDS011;57757;53.198;19.646;2022-12-22T14:25:43;31.10;;;14.30;;
70337;SDS011;57757;53.198;19.646;2022-12-22T14:28:15;29.60;;;15.00;;
70337;SDS011;57757;53.198;19.646;2022-12-22T14:30:53;37.20;;;15.50;;
70337;SDS011;57757;53.198;19.646;2022-12-22T14:33:26;37.80;;;18.60;;
70337;SDS011;57757;53.198;19.646;2022-12-22T14:38:46;40.20;;;19.10;;
70337;SDS011;57757;53.198;19.646;2022-12-22T14:52:47;35.60;;;16.50;;
70337;SDS011;57757;53.198;19.646;2022-12-22T14:57:56;34.20;;;15.00;;
70337;SDS011;57757;53.198;19.646;2022-12-22T15:00:29;34.70;;;16.00;;
70337;SDS011;57757;53.198;19.646;2022-12-22T15:03:03;40.40;;;20.10;;
70337;SDS011;57757;53.198;19.646;2022-12-22T15:05:35;41.80;;;19.40;;
70337;SDS011;57757;53.198;19.646;2022-12-22T15:08:05;33.70;;;16.80;;
70337;SDS011;57757;53.198;19.646;2022-12-22T15:10:53;33.50;;;17.20;;
70337;SDS011;57757;53.198;19.646;2022-12-22T15:13:21;31.30;;;14.90;;
70337;SDS011;57757;53.198;19.646;2022-12-22T15:15:51;33.60;;;15.30;;
70337;SDS011;57757;53.198;19.646;2022-12-22T15:18:21;39.10;;;18.20;;
70337;SDS011;57757;53.198;19.646;2022-12-22T15:20:52;34.40;;;17.50;;
70337;SDS011;57757;53.198;19.646;2022-12-22T15:23:21;35.00;;;16.30;;
70337;SDS011;57757;53.198;19.646;2022-12-22T15:25:50;30.60;;;15.40;;
70337;SDS011;57757;53.198;19.646;2022-12-22T15:28:17;30.30;;;15.60;;
70337;SDS011;57757;53.198;19.646;2022-12-22T15:30:45;36.50;;;17.30;;
70337;SDS011;57757;53.198;19.646;2022-12-22T15:33:14;37.20;;;18.60;;
70337;SDS011;57757;53.198;19.646;2022-12-22T15:35:44;41.10;;;17.70;;
70337;SDS011;57757;53.198;19.646;2022-12-22T15:38:13;32.90;;;15.70;;
70337;SDS011;57757;53.198;19.646;2022-12-22T15:40:45;33.90;;;16.50;;
70337;SDS011;57757;53.198;19.646;2022-12-22T15:43:13;52.10;;;21.70;;
70337;SDS011;57757;53.198;19.646;2022-12-22T15:46:02;38.90;;;18.30;;
70337;SDS011;57757;53.198;19.646;2022-12-22T15:48:34;35.40;;;17.20;;
70337;SDS011;57757;53.198;19.646;2022-12-22T15:51:05;60.40;;;25.10;;
70337;SDS011;57757;53.198;19.646;2022-12-22T15:53:35;35.20;;;16.20;;
70337;SDS011;57757;53.198;19.646;2022-12-22T15:56:03;121.40;;;45.30;;
70337;SDS011;57757;53.198;19.646;2022-12-22T15:58:32;38.20;;;18.20;;
70337;SDS011;57757;53.198;19.646;2022-12-22T16:01:02;34.00;;;15.70;;
70337;SDS011;57757;53.198;19.646;2022-12-22T16:03:30;35.20;;;16.40;;
70337;SDS011;57757;53.198;19.646;2022-12-22T16:05:58;37.20;;;17.00;;
70337;SDS011;57757;53.198;19.646;2022-12-22T16:08:30;32.40;;;16.00;;
70337;SDS011;57757;53.198;19.646;2022-12-22T16:11:05;37.10;;;16.90;;
70337;SDS011;57757;53.198;19.646;2022-12-22T16:13:34;38.20;;;17.10;;
70337;SDS011;57757;53.198;19.646;2022-12-22T16:16:04;34.80;;;16.30;;
70337;SDS011;57757;53.198;19.646;2022-12-22T16:18:32;36.50;;;16.90;;
70337;SDS011;57757;53.198;19.646;2022-12-22T16:21:35;31.70;;;15.40;;
70337;SDS011;57757;53.198;19.646;2022-12-22T16:23:58;33.20;;;15.70;;
70337;SDS011;57757;53.198;19.646;2022-12-22T16:26:27;32.20;;;15.80;;
70337;SDS011;57757;53.198;19.646;2022-12-22T16:28:55;36.90;;;16.80;;
70337;SDS011;57757;53.198;19.646;2022-12-22T16:31:24;34.50;;;15.80;;
70337;SDS011;57757;53.198;19.646;2022-12-22T16:33:53;34.00;;;16.20;;
70337;SDS011;57757;53.198;19.646;2022-12-22T16:36:20;37.00;;;17.50;;
70337;SDS011;57757;53.198;19.646;2022-12-22T16:38:48;44.00;;;20.20;;
70337;SDS011;57757;53.198;19.646;2022-12-22T16:41:17;33.90;;;16.20;;
70337;SDS011;57757;53.198;19.646;2022-12-22T16:43:48;35.00;;;16.30;;
70337;SDS011;57757;53.198;19.646;2022-12-22T16:46:18;33.10;;;16.50;;
70337;SDS011;57757;53.198;19.646;2022-12-22T16:48:49;33.60;;;16.10;;
70337;SDS011;57757;53.198;19.646;2022-12-22T16:51:29;46.90;;;23.50;;
70337;SDS011;57757;53.198;19.646;2022-12-22T16:54:00;42.90;;;21.10;;
70337;SDS011;57757;53.198;19.646;2022-12-22T16:56:30;36.10;;;16.50;;
70337;SDS011;57757;53.198;19.646;2022-12-22T16:58:58;38.30;;;18.60;;
70337;SDS011;57757;53.198;19.646;2022-12-22T17:01:37;34.90;;;16.80;;
70337;SDS011;57757;53.198;19.646;2022-12-22T17:04:10;44.60;;;20.70;;
70337;SDS011;57757;53.198;19.646;2022-12-22T17:06:45;55.40;;;28.20;;
70337;SDS011;57757;53.198;19.646;2022-12-22T17:09:19;46.80;;;21.80;;
70337;SDS011;57757;53.198;19.646;2022-12-22T17:11:52;54.10;;;26.40;;
70337;SDS011;57757;53.198;19.646;2022-12-22T17:14:28;37.50;;;18.10;;